Time;durP1;ratioP1;P1;durP2;ratioP2;P2;SDS_P1;SDS_P2;PMS_P1;PMS_P2;Temp;Humidity;BMP_temperature;BMP_pressure;BME280_temperature;BME280_humidity;BME280_pressure;Samples;Min_cycle;Max_cycle;Signal;HPM_P1;HPM_P2
2021/08/16 00:01:38;;;;;;;1.17;0.60;;;18.80;73.30;;;;;;5061776;28;20307;-74
2021/08/16 00:04:04;;;;;;;2.35;0.70;;;18.80;73.30;;;;;;5066613;28;20025;-74
2021/08/16 00:06:30;;;;;;;2.80;0.70;;;18.70;73.60;;;;;;5056485;28;20588;-74
2021/08/16 00:08:55;;;;;;;2.78;0.80;;;18.80;73.30;;;;;;5056455;28;20056;-74
2021/08/16 00:11:21;;;;;;;1.90;0.73;;;18.70;73.60;;;;;;5055151;28;20028;-74
2021/08/16 00:13:49;;;;;;;2.47;0.60;;;18.60;74.30;;;;;;5056203;28;20081;-75
2021/08/16 00:16:15;;;;;;;2.22;0.60;;;18.80;73.90;;;;;;5054697;28;20043;-74
2021/08/16 00:18:40;;;;;;;1.52;0.60;;;18.80;73.50;;;;;;5056189;28;20460;-74
2021/08/16 00:21:06;;;;;;;1.48;0.50;;;18.80;73.60;;;;;;5055994;28;20044;-74
2021/08/16 00:23:32;;;;;;;2.05;0.75;;;18.80;73.80;;;;;;5056340;28;20656;-75
2021/08/16 00:25:57;;;;;;;1.42;0.60;;;18.80;73.80;;;;;;5056089;28;20148;-75
2021/08/16 00:28:23;;;;;;;1.05;0.70;;;18.70;74.30;;;;;;5054613;28;20082;-75
2021/08/16 00:30:56;;;;;;;2.80;0.75;;;18.80;74.00;;;;;;5055975;28;20112;-74
2021/08/16 00:33:22;;;;;;;1.20;0.57;;;18.70;74.30;;;;;;5054776;28;20039;-74
2021/08/16 00:35:48;;;;;;;2.22;0.75;;;18.60;74.70;;;;;;5055644;28;20557;-75
2021/08/16 00:38:14;;;;;;;1.95;0.70;;;18.50;75.20;;;;;;5055929;28;20075;-74
2021/08/16 00:40:39;;;;;;;1.17;0.60;;;18.50;75.00;;;;;;5062106;28;20028;-75
2021/08/16 00:43:05;;;;;;;1.67;0.68;;;18.50;75.60;;;;;;5074233;28;20024;-74
2021/08/16 00:45:31;;;;;;;2.55;0.80;;;18.70;75.10;;;;;;5055486;28;20056;-75
2021/08/16 00:47:59;;;;;;;2.13;0.70;;;18.60;76.40;;;;;;5055520;28;20036;-74
2021/08/16 00:50:25;;;;;;;2.13;0.73;;;18.40;77.50;;;;;;5054598;28;20377;-74
2021/08/16 00:52:51;;;;;;;1.73;0.73;;;18.50;77.70;;;;;;5054564;28;20048;-74
2021/08/16 00:55:18;;;;;;;1.77;0.75;;;18.30;78.10;;;;;;5055315;28;20032;-74
2021/08/16 00:57:44;;;;;;;1.20;0.60;;;18.30;78.60;;;;;;5055365;28;20545;-74
2021/08/16 01:00:11;;;;;;;1.55;0.73;;;18.40;78.00;;;;;;5055233;28;20032;-74
2021/08/16 01:02:39;;;;;;;1.20;0.60;;;18.40;77.70;;;;;;5055692;28;20073;-75
2021/08/16 01:05:07;;;;;;;1.67;0.70;;;18.40;77.60;;;;;;5055568;28;20475;-74
2021/08/16 01:07:33;;;;;;;2.00;0.90;;;18.40;77.40;;;;;;5054356;28;20056;-74
2021/08/16 01:10:00;;;;;;;1.63;0.80;;;18.50;76.70;;;;;;5055465;28;20037;-74
2021/08/16 01:12:29;;;;;;;3.30;0.80;;;18.40;76.90;;;;;;5054149;28;20037;-74
2021/08/16 01:14:54;;;;;;;3.28;0.70;;;18.50;76.90;;;;;;5062867;28;20052;-74
2021/08/16 01:17:20;;;;;;;2.00;0.77;;;18.50;76.70;;;;;;5075360;28;20016;-75
2021/08/16 01:19:46;;;;;;;1.23;0.70;;;18.60;76.30;;;;;;5074075;28;20044;-75
2021/08/16 01:22:12;;;;;;;1.45;0.73;;;18.60;76.20;;;;;;5075682;28;20023;-75
2021/08/16 01:24:40;;;;;;;2.45;1.02;;;18.60;76.00;;;;;;5074376;28;20107;-75
2021/08/16 01:27:11;;;;;;;2.45;0.85;;;18.60;76.70;;;;;;5075372;28;20024;-74
2021/08/16 01:29:37;;;;;;;1.33;0.60;;;18.70;76.30;;;;;;5066490;28;20032;-75
2021/08/16 01:32:04;;;;;;;2.80;0.70;;;18.50;76.90;;;;;;5055022;28;20024;-74
2021/08/16 01:34:30;;;;;;;2.55;0.70;;;18.50;76.90;;;;;;5055294;28;20029;-74
2021/08/16 01:36:56;;;;;;;1.45;0.60;;;18.50;77.70;;;;;;5070431;28;20020;-74
2021/08/16 01:39:23;;;;;;;1.73;0.65;;;18.30;78.70;;;;;;5053898;28;20513;-74
2021/08/16 01:41:48;;;;;;;2.08;0.75;;;18.30;78.80;;;;;;5070945;28;20024;-74
2021/08/16 01:44:19;;;;;;;1.55;0.70;;;18.40;78.80;;;;;;5062982;28;20603;-74
2021/08/16 01:46:46;;;;;;;1.58;0.70;;;18.30;79.00;;;;;;5054734;28;20112;-74
2021/08/16 01:49:12;;;;;;;1.33;0.75;;;18.30;79.50;;;;;;5055079;28;20128;-74
2021/08/16 01:51:39;;;;;;;1.65;0.70;;;18.30;78.90;;;;;;5055167;28;20397;-74
2021/08/16 01:54:06;;;;;;;1.23;0.60;;;18.10;80.00;;;;;;5054802;28;20033;-74
2021/08/16 01:56:31;;;;;;;2.13;0.93;;;18.20;79.90;;;;;;5054795;28;20021;-74
2021/08/16 01:58:57;;;;;;;1.88;0.70;;;18.30;79.40;;;;;;5053564;28;20557;-74
2021/08/16 02:01:23;;;;;;;1.85;0.80;;;18.50;78.50;;;;;;5054917;28;20145;-74
2021/08/16 02:03:48;;;;;;;2.53;1.02;;;18.50;78.40;;;;;;5054808;28;20544;-74
2021/08/16 02:06:14;;;;;;;1.42;0.60;;;18.40;78.80;;;;;;5055611;28;20025;-74
2021/08/16 02:08:41;;;;;;;2.38;0.90;;;18.30;79.70;;;;;;5074888;28;20157;-74
2021/08/16 02:11:07;;;;;;;2.17;0.90;;;18.30;79.10;;;;;;5074970;28;20081;-74
2021/08/16 02:13:36;;;;;;;2.20;0.75;;;18.50;78.70;;;;;;5067053;28;20609;-74
2021/08/16 02:16:03;;;;;;;1.40;0.68;;;18.60;78.60;;;;;;5053428;28;20036;-75
2021/08/16 02:18:29;;;;;;;1.83;0.93;;;18.70;78.10;;;;;;5054251;28;20071;-74
2021/08/16 02:20:54;;;;;;;1.95;0.90;;;18.70;77.80;;;;;;5054649;28;20021;-74
2021/08/16 02:23:20;;;;;;;1.70;0.98;;;18.60;78.30;;;;;;5054836;28;20017;-75
2021/08/16 02:25:46;;;;;;;1.55;0.70;;;18.60;78.00;;;;;;5060982;28;20056;-74
2021/08/16 02:28:16;;;;;;;2.33;0.90;;;18.50;78.30;;;;;;5075742;28;20036;-75
2021/08/16 02:30:42;;;;;;;0.80;0.50;;;18.60;77.90;;;;;;5077294;28;20027;-75
2021/08/16 02:33:07;;;;;;;1.83;0.77;;;18.70;77.80;;;;;;5076925;28;20028;-74
2021/08/16 02:35:33;;;;;;;1.17;0.70;;;18.70;78.40;;;;;;5063868;28;20581;-74
2021/08/16 02:37:59;;;;;;;1.45;0.80;;;18.60;78.70;;;;;;5058465;28;20132;-74
2021/08/16 02:40:24;;;;;;;1.67;0.60;;;18.60;78.80;;;;;;5075492;28;20035;-74
2021/08/16 02:42:50;;;;;;;1.17;0.70;;;18.50;78.90;;;;;;5078389;28;20700;-75
2021/08/16 02:45:16;;;;;;;2.13;0.80;;;18.50;79.00;;;;;;5076628;28;20135;-74
2021/08/16 02:47:43;;;;;;;1.00;0.60;;;18.50;79.10;;;;;;5072264;28;20033;-74
2021/08/16 02:50:09;;;;;;;1.35;0.70;;;18.60;78.80;;;;;;5058354;28;20090;-74
2021/08/16 02:52:35;;;;;;;1.52;0.70;;;18.60;78.70;;;;;;5056783;28;20036;-74
2021/08/16 02:55:01;;;;;;;1.83;0.70;;;18.50;79.20;;;;;;5058044;28;20029;-74
2021/08/16 02:57:27;;;;;;;1.33;0.70;;;18.50;79.60;;;;;;5072131;28;20086;-74
2021/08/16 02:59:53;;;;;;;2.08;0.85;;;18.40;79.80;;;;;;5073284;28;20021;-74
2021/08/16 03:02:18;;;;;;;2.20;0.70;;;18.40;79.90;;;;;;5056200;28;20467;-74
2021/08/16 03:04:46;;;;;;;2.10;0.80;;;18.50;79.70;;;;;;5056317;28;20071;-74
2021/08/16 03:07:12;;;;;;;3.22;0.85;;;18.50;79.50;;;;;;5057816;28;20033;-74
2021/08/16 03:09:38;;;;;;;1.42;0.60;;;18.30;80.10;;;;;;5056406;28;20024;-74
2021/08/16 03:12:04;;;;;;;1.52;0.70;;;18.50;79.60;;;;;;5057681;28;20092;-74
2021/08/16 03:14:30;;;;;;;2.00;0.85;;;18.50;79.50;;;;;;5057337;28;20109;-74
2021/08/16 03:16:55;;;;;;;1.63;0.70;;;18.50;79.60;;;;;;5057547;28;20056;-74
2021/08/16 03:19:21;;;;;;;1.60;0.80;;;18.50;79.50;;;;;;5057574;28;20027;-74
2021/08/16 03:21:46;;;;;;;1.88;0.77;;;18.50;79.40;;;;;;5056486;28;20032;-74
2021/08/16 03:24:12;;;;;;;1.23;0.70;;;18.50;79.30;;;;;;5057486;28;20021;-74
2021/08/16 03:26:38;;;;;;;0.98;0.60;;;18.60;79.10;;;;;;5057574;28;20041;-74
2021/08/16 03:29:04;;;;;;;1.55;0.60;;;18.60;79.00;;;;;;5057244;28;20017;-74
2021/08/16 03:31:29;;;;;;;1.90;0.90;;;18.60;79.00;;;;;;5057403;28;20072;-74
2021/08/16 03:33:55;;;;;;;1.02;0.60;;;18.60;79.00;;;;;;5057284;28;20025;-74
2021/08/16 03:36:21;;;;;;;1.67;0.70;;;18.70;78.90;;;;;;5057092;28;20040;-74
2021/08/16 03:38:46;;;;;;;1.10;0.50;;;18.60;79.20;;;;;;5056880;28;20021;-74
2021/08/16 03:41:13;;;;;;;1.67;0.80;;;18.60;79.00;;;;;;5067945;28;20036;-74
2021/08/16 03:43:39;;;;;;;1.30;0.63;;;18.60;79.10;;;;;;5073881;28;20033;-74
2021/08/16 03:46:04;;;;;;;1.15;0.63;;;18.60;79.30;;;;;;5057175;28;20108;-74
2021/08/16 03:48:30;;;;;;;1.35;0.77;;;18.70;78.70;;;;;;5056888;28;20112;-74
2021/08/16 03:50:56;;;;;;;1.27;0.52;;;18.70;78.80;;;;;;5072279;28;20537;-74
2021/08/16 03:53:22;;;;;;;1.30;0.60;;;18.70;78.60;;;;;;5056707;28;20143;-74
2021/08/16 03:55:52;;;;;;;1.17;0.63;;;18.70;78.70;;;;;;5057074;28;20032;-74
2021/08/16 03:58:18;;;;;;;0.80;0.47;;;18.70;78.90;;;;;;5056917;28;20036;-74
2021/08/16 04:00:44;;;;;;;1.13;0.75;;;18.70;78.60;;;;;;5056492;28;20029;-74
2021/08/16 04:03:11;;;;;;;1.65;0.73;;;18.70;78.70;;;;;;5072297;28;20468;-74
2021/08/16 04:05:37;;;;;;;1.27;0.70;;;18.80;78.70;;;;;;5056677;28;20384;-74
2021/08/16 04:08:03;;;;;;;1.98;0.80;;;18.70;78.60;;;;;;5056776;28;20025;-74
2021/08/16 04:10:29;;;;;;;1.13;0.65;;;18.80;78.50;;;;;;5056501;28;20025;-74
2021/08/16 04:13:05;;;;;;;;;;;;;;;;;;;;;
2021/08/16 04:15:31;;;;;;;2.50;0.70;;;18.80;78.40;;;;;;5056374;28;20028;-74
2021/08/16 04:17:56;;;;;;;1.65;0.65;;;18.70;78.60;;;;;;5070476;28;20088;-74
2021/08/16 04:20:22;;;;;;;2.25;0.80;;;18.70;78.60;;;;;;5071969;28;20108;-74
2021/08/16 04:22:49;;;;;;;1.67;0.80;;;18.70;78.70;;;;;;5056425;28;20033;-74
2021/08/16 04:25:18;;;;;;;0.98;0.65;;;18.70;78.70;;;;;;5056152;28;20043;-75
2021/08/16 04:27:44;;;;;;;1.90;0.70;;;18.70;78.70;;;;;;5056173;28;20037;-74
2021/08/16 04:30:11;;;;;;;1.58;0.75;;;18.70;78.70;;;;;;5056064;28;20032;-74
2021/08/16 04:32:37;;;;;;;2.30;1.05;;;18.70;78.60;;;;;;5054773;28;20025;-74
2021/08/16 04:35:04;;;;;;;1.33;0.75;;;18.70;78.60;;;;;;5055973;28;20040;-75
2021/08/16 04:37:37;;;;;;;0.93;0.70;;;18.70;78.40;;;;;;5056205;28;20048;-74
2021/08/16 04:40:04;;;;;;;1.20;0.85;;;18.70;78.90;;;;;;5057425;28;20097;-74
2021/08/16 04:42:30;;;;;;;2.10;0.70;;;18.70;78.80;;;;;;5074982;28;20513;-74
2021/08/16 04:44:56;;;;;;;2.08;0.80;;;18.70;78.60;;;;;;5075694;28;20041;-74
2021/08/16 04:47:24;;;;;;;1.33;0.70;;;18.70;78.60;;;;;;5075270;28;20025;-74
2021/08/16 04:49:49;;;;;;;1.92;0.90;;;18.70;78.60;;;;;;5074780;28;20020;-74
2021/08/16 04:52:15;;;;;;;1.33;0.90;;;18.70;78.60;;;;;;5075797;28;20581;-74
2021/08/16 04:54:41;;;;;;;1.13;0.70;;;18.80;78.40;;;;;;5076075;28;20048;-74
2021/08/16 04:57:07;;;;;;;1.27;0.88;;;18.80;78.50;;;;;;5056707;28;20051;-74
2021/08/16 04:59:32;;;;;;;1.13;0.70;;;18.80;78.30;;;;;;5055723;28;20071;-74
2021/08/16 05:01:58;;;;;;;1.48;0.82;;;18.80;78.40;;;;;;5055425;28;20048;-74
2021/08/16 05:04:24;;;;;;;1.23;0.85;;;18.80;78.50;;;;;;5055685;28;20036;-74
2021/08/16 05:06:49;;;;;;;1.23;0.75;;;18.80;78.40;;;;;;5071034;28;20056;-74
2021/08/16 05:09:15;;;;;;;1.33;0.70;;;18.70;78.80;;;;;;5055492;28;20399;-74
2021/08/16 05:11:41;;;;;;;1.20;0.70;;;18.70;78.80;;;;;;5059922;28;20364;-74
2021/08/16 05:14:06;;;;;;;2.33;0.88;;;18.70;79.00;;;;;;5074175;28;20027;-74
2021/08/16 05:16:32;;;;;;;1.92;0.80;;;18.70;78.80;;;;;;5075563;28;20139;-74
2021/08/16 05:18:58;;;;;;;1.23;0.60;;;18.70;78.90;;;;;;5075315;28;20028;-74
2021/08/16 05:21:24;;;;;;;0.95;0.70;;;18.60;79.00;;;;;;5066798;28;20075;-74
2021/08/16 05:23:50;;;;;;;1.48;0.70;;;18.70;79.20;;;;;;5055420;28;20029;-74
2021/08/16 05:26:16;;;;;;;1.67;0.77;;;18.80;78.50;;;;;;5062504;28;20040;-74
2021/08/16 05:28:41;;;;;;;1.60;0.88;;;18.80;78.80;;;;;;5074117;28;20055;-74
2021/08/16 05:31:07;;;;;;;2.08;1.00;;;18.80;78.70;;;;;;5075278;28;20025;-74
2021/08/16 05:33:32;;;;;;;1.55;0.75;;;18.80;78.70;;;;;;5064371;28;20052;-74
2021/08/16 05:35:58;;;;;;;1.30;0.70;;;18.80;78.90;;;;;;5055146;28;20035;-74
2021/08/16 05:38:24;;;;;;;1.58;0.82;;;18.80;78.60;;;;;;5055207;28;20094;-74
2021/08/16 05:40:49;;;;;;;1.40;0.75;;;18.90;78.80;;;;;;5061624;28;20036;-74
2021/08/16 05:43:15;;;;;;;1.30;0.90;;;18.90;78.80;;;;;;5073463;28;20017;-75
2021/08/16 05:45:41;;;;;;;1.40;0.88;;;18.90;78.90;;;;;;5075160;28;20444;-75
2021/08/16 05:48:07;;;;;;;1.20;0.80;;;18.90;78.60;;;;;;5063195;28;20491;-74
2021/08/16 05:50:33;;;;;;;1.40;1.00;;;19.00;78.70;;;;;;5063795;28;20482;-74
2021/08/16 05:53:00;;;;;;;1.45;0.93;;;19.00;78.70;;;;;;5061991;28;20111;-75
2021/08/16 05:55:26;;;;;;;1.55;0.90;;;18.90;78.70;;;;;;5061424;28;20395;-75
2021/08/16 05:57:52;;;;;;;1.67;0.80;;;19.00;78.60;;;;;;5061586;28;20028;-74
2021/08/16 06:00:19;;;;;;;1.20;0.90;;;18.90;78.70;;;;;;5063581;28;20113;-74
2021/08/16 06:02:46;;;;;;;2.00;0.98;;;19.00;78.80;;;;;;5066334;28;20029;-74
2021/08/16 06:05:12;;;;;;;2.20;1.13;;;18.90;79.10;;;;;;5066447;28;20083;-74
2021/08/16 06:07:38;;;;;;;0.93;0.60;;;18.90;79.30;;;;;;5067325;28;20025;-74
2021/08/16 06:10:04;;;;;;;1.38;0.80;;;18.80;79.40;;;;;;5066726;28;20029;-74
2021/08/16 06:12:30;;;;;;;1.10;0.70;;;18.80;79.00;;;;;;5066563;28;20463;-74
2021/08/16 06:14:56;;;;;;;0.88;0.45;;;18.80;78.60;;;;;;5068892;28;20098;-74
2021/08/16 06:17:21;;;;;;;1.70;0.80;;;18.80;78.50;;;;;;5067133;28;20024;-74
2021/08/16 06:19:47;;;;;;;1.30;0.60;;;18.80;78.30;;;;;;5067186;28;20055;-74
2021/08/16 06:22:13;;;;;;;1.20;0.68;;;18.80;78.10;;;;;;5067096;28;20024;-74
2021/08/16 06:24:38;;;;;;;1.65;0.85;;;18.90;77.90;;;;;;5066801;28;20033;-74
2021/08/16 06:27:05;;;;;;;2.00;0.60;;;18.90;77.50;;;;;;5064860;28;20033;-74
2021/08/16 06:29:31;;;;;;;1.42;0.60;;;19.00;77.40;;;;;;5069852;28;20039;-78
2021/08/16 06:31:57;;;;;;;1.23;0.60;;;19.00;77.00;;;;;;5070850;28;20040;-77
2021/08/16 06:34:23;;;;;;;1.50;0.73;;;19.00;76.80;;;;;;5064822;28;20071;-82
2021/08/16 06:36:56;;;;;;;2.03;0.80;;;19.00;76.60;;;;;;5058202;28;20530;-76
2021/08/16 06:39:24;;;;;;;2.05;0.70;;;19.00;76.40;;;;;;5058481;28;20025;-77
2021/08/16 06:41:52;;;;;;;1.42;0.70;;;19.10;76.20;;;;;;5070877;28;20021;-81
2021/08/16 06:44:20;;;;;;;1.15;0.68;;;19.10;75.80;;;;;;5071102;28;20526;-77
2021/08/16 06:46:46;;;;;;;2.83;0.73;;;19.00;75.70;;;;;;5077758;28;20438;-78
2021/08/16 06:49:11;;;;;;;1.60;0.60;;;19.00;75.90;;;;;;5077905;28;20497;-77
2021/08/16 06:51:39;;;;;;;2.63;0.82;;;18.90;75.70;;;;;;5077914;28;20097;-77
2021/08/16 06:54:04;;;;;;;2.35;0.93;;;18.90;75.40;;;;;;5064573;28;20987;-76
2021/08/16 06:56:30;;;;;;;3.45;0.70;;;18.90;75.40;;;;;;5058046;28;20103;-77
2021/08/16 06:58:56;;;;;;;2.13;0.82;;;18.90;75.20;;;;;;5057244;28;20032;-78
2021/08/16 07:01:23;;;;;;;2.38;0.85;;;18.80;75.00;;;;;;5057818;28;20036;-78
2021/08/16 07:03:49;;;;;;;2.58;1.08;;;18.80;74.60;;;;;;5075626;28;20025;-78
2021/08/16 07:06:15;;;;;;;1.65;0.80;;;18.80;74.60;;;;;;5076017;28;20055;-76
2021/08/16 07:08:41;;;;;;;2.88;0.95;;;18.80;74.70;;;;;;5071288;28;20455;-79
2021/08/16 07:11:07;;;;;;;2.13;0.80;;;18.90;74.40;;;;;;5076830;28;20066;-76
2021/08/16 07:13:33;;;;;;;1.65;0.65;;;18.90;74.00;;;;;;5067267;28;20082;-76
2021/08/16 07:15:58;;;;;;;1.98;0.80;;;18.80;73.90;;;;;;5067596;28;20077;-77
2021/08/16 07:18:24;;;;;;;2.95;1.00;;;18.90;73.90;;;;;;5066501;28;20024;-75
2021/08/16 07:20:50;;;;;;;2.28;1.00;;;19.10;73.20;;;;;;5064866;28;20017;-78
2021/08/16 07:23:15;;;;;;;1.85;0.60;;;19.20;72.90;;;;;;5064063;28;20021;-78
2021/08/16 07:25:41;;;;;;;2.50;1.00;;;19.40;71.50;;;;;;5057449;28;20483;-77
2021/08/16 07:28:07;;;;;;;2.15;0.82;;;19.60;69.80;;;;;;5057024;28;20021;-78
2021/08/16 07:30:33;;;;;;;2.50;0.88;;;19.90;69.40;;;;;;5072891;28;20055;-78
2021/08/16 07:32:59;;;;;;;1.52;0.70;;;20.20;68.80;;;;;;5057212;28;20476;-77
2021/08/16 07:35:25;;;;;;;3.28;1.02;;;20.40;67.30;;;;;;5057267;28;20060;-77
2021/08/16 07:37:51;;;;;;;1.55;1.00;;;20.50;66.30;;;;;;5073696;28;20203;-77
2021/08/16 07:40:19;;;;;;;1.60;0.68;;;20.70;65.80;;;;;;5077036;28;20025;-78
2021/08/16 07:42:45;;;;;;;2.38;0.70;;;20.90;64.10;;;;;;5071953;28;20110;-77
2021/08/16 07:45:11;;;;;;;1.67;0.70;;;21.60;61.90;;;;;;5063474;28;20053;-78
2021/08/16 07:47:37;;;;;;;1.00;0.55;;;22.20;60.00;;;;;;5057035;28;20033;-78
2021/08/16 07:50:06;;;;;;;1.42;0.47;;;22.90;58.00;;;;;;5065656;28;20108;-77
2021/08/16 07:52:35;;;;;;;1.73;0.77;;;24.00;54.60;;;;;;5066843;28;20803;-77
2021/08/16 07:55:00;;;;;;;3.47;0.90;;;25.60;49.40;;;;;;5057909;28;20446;-77
2021/08/16 07:57:26;;;;;;;1.27;0.52;;;27.30;47.10;;;;;;5059527;28;20028;-78
2021/08/16 07:59:52;;;;;;;1.15;0.45;;;28.20;43.50;;;;;;5060179;28;20028;-77
2021/08/16 08:02:17;;;;;;;1.25;0.52;;;30.00;40.70;;;;;;5066725;28;20059;-78
2021/08/16 08:04:43;;;;;;;1.40;0.60;;;31.30;37.90;;;;;;5072088;28;20021;-78
2021/08/16 08:07:09;;;;;;;1.25;0.60;;;32.50;35.30;;;;;;5072075;28;20074;-76
2021/08/16 08:09:34;;;;;;;1.60;0.60;;;33.10;33.30;;;;;;5063232;28;20025;-81
2021/08/16 08:12:00;;;;;;;1.67;0.70;;;33.90;32.30;;;;;;5063394;28;20029;-82
2021/08/16 08:14:26;;;;;;;1.27;0.40;;;34.70;31.30;;;;;;5072338;28;20028;-82
2021/08/16 08:16:52;;;;;;;1.30;0.50;;;35.30;31.50;;;;;;5064925;28;20692;-80
2021/08/16 08:19:18;;;;;;;1.40;0.50;;;35.40;28.30;;;;;;5064649;28;20052;-82
2021/08/16 08:21:43;;;;;;;1.23;0.50;;;35.70;27.00;;;;;;5066515;28;20110;-82
2021/08/16 08:24:09;;;;;;;1.27;0.60;;;36.30;28.30;;;;;;5063027;28;20028;-82
2021/08/16 08:26:35;;;;;;;0.98;0.50;;;36.20;26.70;;;;;;5064211;28;20036;-81
2021/08/16 08:29:00;;;;;;;1.60;0.50;;;35.80;28.20;;;;;;5064253;28;20025;-82
2021/08/16 08:31:26;;;;;;;1.33;0.50;;;36.30;27.40;;;;;;5063831;28;20078;-82
2021/08/16 08:33:53;;;;;;;2.58;0.65;;;36.00;27.10;;;;;;5065163;28;20434;-82
2021/08/16 08:36:19;;;;;;;1.70;0.50;;;36.50;26.40;;;;;;5063125;28;20020;-80
2021/08/16 08:38:44;;;;;;;1.20;0.65;;;36.60;25.90;;;;;;5063098;28;20040;-80
2021/08/16 08:41:15;;;;;;;1.77;0.50;;;35.30;27.90;;;;;;5063080;28;20056;-80
2021/08/16 08:43:41;;;;;;;1.92;0.47;;;35.20;29.10;;;;;;5064913;28;20041;-82
2021/08/16 08:46:08;;;;;;;1.33;0.43;;;34.30;29.00;;;;;;5062749;28;20037;-81
2021/08/16 08:48:34;;;;;;;0.90;0.50;;;32.70;30.10;;;;;;5065442;28;20031;-82
2021/08/16 08:51:00;;;;;;;1.10;0.50;;;32.50;31.20;;;;;;5063943;28;20028;-82
2021/08/16 08:53:25;;;;;;;1.15;0.30;;;31.80;31.90;;;;;;5063507;28;20032;-81
2021/08/16 08:55:51;;;;;;;1.10;0.50;;;32.10;31.50;;;;;;5064928;28;20028;-82
2021/08/16 08:58:20;;;;;;;0.70;0.30;;;32.30;32.50;;;;;;5064204;28;20025;-82
2021/08/16 09:00:46;;;;;;;1.10;0.40;;;32.30;30.90;;;;;;5066051;28;20395;-82
2021/08/16 09:03:11;;;;;;;1.00;0.50;;;31.60;31.80;;;;;;5065551;28;20464;-83
2021/08/16 09:05:52;;;;;;;1.83;1.15;;;31.80;32.10;;;;;;5065593;28;20047;-82
2021/08/16 09:08:26;;;;;;;1.10;0.60;;;31.90;31.70;;;;;;5065388;28;20016;-83
2021/08/16 09:10:52;;;;;;;1.35;0.40;;;32.40;31.90;;;;;;5064651;28;20523;-82
2021/08/16 09:13:25;;;;;;;1.00;0.50;;;32.40;31.40;;;;;;5063099;28;20021;-83
2021/08/16 09:15:54;;;;;;;1.00;0.40;;;33.10;30.60;;;;;;5063589;28;20028;-82
2021/08/16 09:18:30;;;;;;;1.20;0.40;;;32.70;32.00;;;;;;5065823;28;20017;-85
2021/08/16 09:20:56;;;;;;;1.65;0.80;;;32.10;30.10;;;;;;5065223;28;20025;-83
2021/08/16 09:23:22;;;;;;;1.08;0.70;;;33.10;29.80;;;;;;5063239;28;20029;-83
2021/08/16 09:26:10;;;;;;;1.60;1.25;;;33.90;29.50;;;;;;5060101;28;20033;-83
2021/08/16 09:28:35;;;;;;;1.35;0.80;;;34.90;28.10;;;;;;5054650;28;20037;-83
2021/08/16 09:31:10;;;;;;;1.42;0.60;;;33.50;30.10;;;;;;5069692;28;20078;-84
2021/08/16 09:33:36;;;;;;;1.27;0.60;;;34.40;28.80;;;;;;5072771;28;20111;-84
2021/08/16 09:36:02;;;;;;;1.08;0.47;;;34.10;28.90;;;;;;5054906;28;20060;-84
2021/08/16 09:38:40;;;;;;;0.93;0.50;;;33.40;29.00;;;;;;5055013;28;20036;-84
2021/08/16 09:41:18;;;;;;;0.65;0.40;;;34.20;27.10;;;;;;5064192;28;20056;-82
2021/08/16 09:43:44;;;;;;;1.30;0.68;;;34.50;27.00;;;;;;5063280;28;20092;-85
2021/08/16 09:46:14;;;;;;;0.90;0.40;;;35.10;27.20;;;;;;5054742;28;20451;-83
2021/08/16 09:48:40;;;;;;;1.58;0.60;;;35.00;27.80;;;;;;5054895;28;20475;-90
2021/08/16 09:51:06;;;;;;;0.80;0.40;;;35.30;27.00;;;;;;5058555;28;20036;-88
2021/08/16 09:53:32;;;;;;;0.80;0.40;;;35.50;27.30;;;;;;5070042;28;20025;-78
2021/08/16 09:56:01;;;;;;;1.00;0.50;;;35.50;26.00;;;;;;5059978;28;20063;-82
2021/08/16 09:58:28;;;;;;;0.68;0.30;;;35.80;25.10;;;;;;5074037;28;20059;-82
2021/08/16 10:00:54;;;;;;;1.00;0.50;;;35.30;25.40;;;;;;5073741;28;20031;-88
2021/08/16 10:03:20;;;;;;;1.00;0.45;;;35.30;25.00;;;;;;5075046;28;20104;-78
2021/08/16 10:05:49;;;;;;;0.90;0.50;;;35.30;25.10;;;;;;5072566;28;20035;-80
2021/08/16 10:08:21;;;;;;;1.27;0.52;;;33.60;26.60;;;;;;5075079;28;20029;-80
2021/08/16 10:10:48;;;;;;;1.50;0.52;;;32.70;28.10;;;;;;5058055;28;20095;-85
2021/08/16 10:13:14;;;;;;;1.02;0.50;;;32.00;29.40;;;;;;5053994;28;20026;-82
2021/08/16 10:15:43;;;;;;;0.65;0.22;;;31.90;29.90;;;;;;5055035;28;20037;-79
2021/08/16 10:18:12;;;;;;;0.85;0.38;;;31.50;31.30;;;;;;5073195;28;20032;-84
2021/08/16 10:20:39;;;;;;;1.10;0.60;;;31.80;31.00;;;;;;5089078;28;20074;-82
2021/08/16 10:23:21;;;;;;;1.20;0.47;;;31.40;31.00;;;;;;5082362;28;20020;-80
2021/08/16 10:25:50;;;;;;;1.33;0.75;;;30.70;31.90;;;;;;5071145;28;20025;-80
2021/08/16 10:28:30;;;;;;;1.42;0.60;;;29.90;32.30;;;;;;5068527;28;20033;-79
2021/08/16 10:30:58;;;;;;;2.03;0.63;;;29.30;33.50;;;;;;5061562;28;20037;-80
2021/08/16 10:33:24;;;;;;;1.15;0.60;;;29.10;34.40;;;;;;5063985;28;20025;-83
2021/08/16 10:35:51;;;;;;;1.30;0.50;;;29.10;33.90;;;;;;5064035;28;20108;-79
2021/08/16 10:38:18;;;;;;;1.85;0.70;;;29.00;34.00;;;;;;5069563;28;20031;-81
2021/08/16 10:40:57;;;;;;;1.55;0.88;;;28.80;34.80;;;;;;5068399;28;20029;-82
2021/08/16 10:43:33;;;;;;;1.37;0.67;;;28.70;34.70;;;;;;5061651;28;20483;-82
2021/08/16 10:45:59;;;;;;;2.10;0.98;;;28.60;35.60;;;;;;5063867;28;20029;-80
2021/08/16 10:48:32;;;;;;;1.08;0.40;;;28.70;35.60;;;;;;5060560;28;20078;-78
2021/08/16 10:51:09;;;;;;;1.42;0.60;;;28.70;35.80;;;;;;5070319;28;20020;-78
2021/08/16 10:53:48;;;;;;;1.70;0.60;;;28.70;36.00;;;;;;5063199;28;20064;-79
2021/08/16 10:56:24;;;;;;;1.55;0.77;;;28.80;36.30;;;;;;5065378;28;20025;-82
2021/08/16 10:58:52;;;;;;;1.08;0.45;;;29.00;35.80;;;;;;5065924;28;20066;-77
2021/08/16 11:01:37;;;;;;;1.35;0.70;;;29.00;36.30;;;;;;5067037;28;20391;-77
2021/08/16 11:04:08;;;;;;;1.20;0.60;;;28.90;35.50;;;;;;5062676;28;20029;-78
2021/08/16 11:06:34;;;;;;;1.15;0.60;;;28.70;36.00;;;;;;5062509;28;20107;-77
2021/08/16 11:09:04;;;;;;;1.67;0.80;;;28.60;35.70;;;;;;5067374;28;20112;-77
2021/08/16 11:11:32;;;;;;;1.10;0.50;;;28.50;36.40;;;;;;5066393;28;21114;-76
2021/08/16 11:14:10;;;;;;;1.38;0.82;;;28.60;37.10;;;;;;5069529;28;20372;-75
2021/08/16 11:16:50;;;;;;;1.38;0.73;;;28.30;36.60;;;;;;5065695;28;20070;-76
2021/08/16 11:19:15;;;;;;;;;;;28.00;37.60;;;;;;5061798;28;20071;-78
2021/08/16 11:22:01;;;;;;;1.75;0.70;;;27.90;38.00;;;;;;5066392;28;19913;-78
2021/08/16 11:24:27;;;;;;;0.90;0.40;;;28.20;39.50;;;;;;5065799;28;20075;-82
2021/08/16 11:26:52;;;;;;;1.25;0.65;;;28.40;38.70;;;;;;5064985;28;20033;-82
2021/08/16 11:29:22;;;;;;;1.23;0.57;;;28.60;38.00;;;;;;5061307;28;20111;-78
2021/08/16 11:31:55;;;;;;;1.88;0.85;;;28.40;36.60;;;;;;5065881;28;20140;-77
2021/08/16 11:34:20;;;;;;;2.17;0.70;;;28.00;37.40;;;;;;5064467;28;20054;-77
2021/08/16 11:36:46;;;;;;;1.73;0.80;;;27.70;37.70;;;;;;5066346;28;20032;-77
2021/08/16 11:39:15;;;;;;;1.08;0.60;;;27.40;37.80;;;;;;5056838;28;20028;-78
2021/08/16 11:41:41;;;;;;;1.10;0.70;;;27.40;39.20;;;;;;5070155;28;20052;-77
2021/08/16 11:44:17;;;;;;;1.35;0.50;;;27.50;39.20;;;;;;5064248;28;20045;-77
2021/08/16 11:46:43;;;;;;;0.98;0.50;;;27.80;37.90;;;;;;5062700;28;20548;-76
2021/08/16 11:49:11;;;;;;;2.22;0.70;;;27.60;38.00;;;;;;5066495;28;20027;-78
2021/08/16 11:51:42;;;;;;;1.50;0.50;;;27.40;37.80;;;;;;5068826;28;20028;-78
2021/08/16 11:54:22;;;;;;;1.10;0.60;;;27.30;38.80;;;;;;5073703;28;20537;-77
2021/08/16 11:56:55;;;;;;;1.30;0.55;;;27.00;39.20;;;;;;5072346;28;20036;-77
2021/08/16 11:59:21;;;;;;;1.33;0.60;;;26.90;40.00;;;;;;5071143;28;20024;-77
2021/08/16 12:01:48;;;;;;;1.55;0.50;;;26.80;40.30;;;;;;5072989;28;20019;-77
2021/08/16 12:04:13;;;;;;;1.30;0.45;;;26.50;40.90;;;;;;5071792;28;20032;-76
2021/08/16 12:06:41;;;;;;;1.80;0.60;;;26.30;41.20;;;;;;5074661;28;20036;-77
2021/08/16 12:09:08;;;;;;;1.27;0.57;;;26.20;41.70;;;;;;5074545;28;20080;-77
2021/08/16 12:11:35;;;;;;;1.35;0.60;;;26.20;42.00;;;;;;5074186;28;20032;-77
2021/08/16 12:14:01;;;;;;;1.92;0.60;;;26.40;42.50;;;;;;5063335;28;20040;-78
2021/08/16 12:16:32;;;;;;;1.77;0.65;;;26.60;42.20;;;;;;5060693;28;20127;-77
2021/08/16 12:18:58;;;;;;;0.93;0.40;;;26.70;42.20;;;;;;5052835;28;20032;-77
2021/08/16 12:21:24;;;;;;;1.60;0.60;;;26.70;41.90;;;;;;5067192;28;20032;-78
2021/08/16 12:24:04;;;;;;;1.20;0.50;;;26.60;42.10;;;;;;5069750;28;20806;-77
2021/08/16 12:26:34;;;;;;;;;;;26.30;42.30;;;;;;5063988;28;20068;-77
2021/08/16 12:29:00;;;;;;;1.40;0.60;;;26.20;43.30;;;;;;5065662;28;19912;-78
2021/08/16 12:31:28;;;;;;;1.77;0.70;;;26.20;42.80;;;;;;5064303;28;20033;-78
2021/08/16 12:34:05;;;;;;;1.10;0.50;;;25.90;44.10;;;;;;5065509;28;20032;-77
2021/08/16 12:36:36;;;;;;;1.42;0.50;;;25.80;44.30;;;;;;5059504;28;20056;-78
2021/08/16 12:39:06;;;;;;;1.08;0.50;;;25.70;44.70;;;;;;5055425;28;20120;-79
2021/08/16 12:41:33;;;;;;;1.80;0.65;;;25.80;43.90;;;;;;5068976;28;20107;-77
2021/08/16 12:44:00;;;;;;;1.92;0.60;;;25.80;44.50;;;;;;5073232;28;20067;-82
2021/08/16 12:46:36;;;;;;;1.40;0.70;;;25.80;43.90;;;;;;5071595;28;20036;-79
2021/08/16 12:49:04;;;;;;;0.85;0.40;;;25.80;43.80;;;;;;5072928;28;20028;-79